Auburn, CA

10:03 AM PDT on September 24, 2017 (GMT -0700)
Auburn Municipal

Weather History for KAUN - November, 2010

Change the Weather History Date:

Saturday, November 13, 2010

  Actual Average Record
Temperature  
Mean Temperature 52 °F -  
Max Temperature 64 °F 62 °F 80 °F (1990)
Min Temperature 39 °F 43 °F 31 °F (1985)
Degree Days  
Heating Degree Days 14    
Growing Degree Days 2 (Base 50)    
Moisture  
Dew Point 38 °F    
Average Humidity 53    
Maximum Humidity 87    
Minimum Humidity 32    
Precipitation  
Precipitation 0.00 in - - ()
Sea Level Pressure  
Sea Level Pressure 30.27 in    
Wind  
Wind Speed 3 mph (NNW)    
Max Wind Speed 9 mph    
Max Gust Speed -    
Visibility 10 miles    
Events      
Averages and records for this station are not official NWS values.
T = Trace of Precipitation, MM = Missing Value Source: NWS Daily Summary

Daily Weather History Graph

Daily Weather History Graph

Search for Another Location

Airport or City:

Trip Planner

Search our weather history database for the weather conditions in past years. The results will help you decide how hot, cold, wet, or windy it might be!

Date:

Astronomy

Nov. 13, 2010 Rise Set
Actual Time 6:44 AM PST 4:51 PM PST
Civil Twilight 6:16 AM PST 5:20 PM PST
Nautical Twilight 5:44 AM PST 5:52 PM PST
Astronomical Twilight 5:12 AM PST 6:23 PM PST
Moon 12:43 PM PST (11/13) No Moon Set
Length of Visible Light 11h 03m
Length of Day
10h 06m
First Quarter, 51% of the Moon is Illuminated
Nov 13
First Quarter
Nov 21
Full
Nov 28
Last Quarter
Dec 5
New
Dec 13
First Quarter

Hourly Weather History & Observations

Time (PST) Temp. Windchill Dew Point Humidity Pressure Visibility Wind Dir Wind Speed Gust Speed Precip Events Conditions
12:10 AM 48.2 °F - 37.4 °F 66% 30.32 in 10.0 mi ENE 3.5 mph - N/A   Clear
12:30 AM 48.2 °F - 35.6 °F 62% 30.32 in 10.0 mi Calm Calm - N/A   Clear
1:10 AM 46.4 °F 44.3 °F 35.6 °F 66% 30.32 in 10.0 mi East 4.6 mph - N/A   Clear
1:30 AM 44.6 °F - 35.6 °F 71% 30.32 in 10.0 mi Calm Calm - N/A   Clear
1:50 AM 46.4 °F - 37.4 °F 71% 30.32 in 10.0 mi Calm Calm - N/A   Clear
2:10 AM 42.8 °F - 35.6 °F 76% 30.32 in 10.0 mi Calm Calm - N/A   Clear
2:30 AM 44.6 °F 43.1 °F 37.4 °F 76% 30.31 in 10.0 mi NNE 3.5 mph - N/A   Clear
2:50 AM 44.6 °F 43.1 °F 35.6 °F 71% 30.30 in 10.0 mi NE 3.5 mph - N/A   Clear
3:10 AM 44.6 °F - 35.6 °F 71% 30.30 in 10.0 mi Calm Calm - N/A   Clear
4:10 AM 42.8 °F - 33.8 °F 70% 30.31 in 10.0 mi Calm Calm - N/A   Clear
4:30 AM 48.2 °F - 32.0 °F 54% 30.30 in 10.0 mi ENE 3.5 mph - N/A   Clear
4:50 AM 48.2 °F - 35.6 °F 62% 30.30 in 10.0 mi ESE 9.2 mph - N/A   Clear
5:10 AM 48.2 °F - 35.6 °F 62% 30.30 in 10.0 mi WNW 5.8 mph - N/A   Clear
5:30 AM 44.6 °F 41.4 °F 33.8 °F 66% 30.31 in 10.0 mi WNW 5.8 mph - N/A   Clear
5:50 AM 42.8 °F - 35.6 °F 76% 30.31 in 10.0 mi Calm Calm - N/A   Clear
6:10 AM 39.2 °F 35.9 °F 35.6 °F 87% 30.30 in 10.0 mi East 4.6 mph - N/A   Clear
6:30 AM 42.8 °F 40.1 °F 35.6 °F 76% 30.29 in 10.0 mi East 4.6 mph - N/A   Clear
6:50 AM 44.6 °F - 35.6 °F 71% 30.32 in 10.0 mi Calm Calm - N/A   Clear
7:10 AM 42.8 °F 41.1 °F 35.6 °F 76% 30.32 in 10.0 mi East 3.5 mph - N/A   Clear
7:30 AM 46.4 °F 45.2 °F 37.4 °F 71% 30.32 in 10.0 mi ESE 3.5 mph - N/A   Clear
7:50 AM 48.2 °F - 37.4 °F 66% 30.33 in 10.0 mi East 6.9 mph - N/A   Clear
8:10 AM 50.0 °F - 39.2 °F 66% 30.31 in 10.0 mi ESE 9.2 mph - N/A   Clear
8:30 AM 53.6 °F - 37.4 °F 54% 30.32 in 10.0 mi SE 5.8 mph - N/A   Clear
8:50 AM 53.6 °F - 37.4 °F 54% 30.33 in 10.0 mi Calm Calm - N/A   Clear
9:10 AM 53.6 °F - 37.4 °F 54% 30.33 in 10.0 mi ESE 4.6 mph - N/A   Clear
9:30 AM 55.4 °F - 39.2 °F 54% 30.32 in 10.0 mi ENE 3.5 mph - N/A   Clear
9:50 AM 57.2 °F - 37.4 °F 48% 30.31 in 10.0 mi Calm Calm - N/A   Clear
10:10 AM 59.0 °F - 35.6 °F 42% 30.31 in 10.0 mi Calm Calm - N/A   Clear
10:30 AM 60.8 °F - 35.6 °F 39% 30.30 in 10.0 mi Calm Calm - N/A   Clear
10:50 AM 60.8 °F - 35.6 °F 39% 30.29 in 10.0 mi West 3.5 mph - N/A   Clear
11:10 AM 60.8 °F - 42.8 °F 52% 30.30 in 10.0 mi WNW 6.9 mph - N/A   Clear
11:50 AM 62.6 °F - 42.8 °F 48% 30.29 in 10.0 mi WNW 3.5 mph - N/A   Clear
12:10 PM 62.6 °F - 42.8 °F 48% 30.28 in 10.0 mi West 3.5 mph - N/A   Clear
12:30 PM 62.6 °F - 42.8 °F 48% 30.28 in 10.0 mi West 4.6 mph - N/A   Clear
12:50 PM 60.8 °F - 44.6 °F 55% 30.27 in 10.0 mi WNW 4.6 mph - N/A   Clear
1:10 PM 62.6 °F - 44.6 °F 52% 30.26 in 10.0 mi WNW 4.6 mph - N/A   Clear
1:30 PM 62.6 °F - 44.6 °F 52% 30.26 in 10.0 mi West 8.1 mph - N/A   Clear
1:50 PM 62.6 °F - 44.6 °F 52% 30.25 in 10.0 mi WNW 4.6 mph - N/A   Clear
2:10 PM 62.6 °F - 42.8 °F 48% 30.24 in 10.0 mi WNW 4.6 mph - N/A   Clear
2:30 PM 62.6 °F - 42.8 °F 48% 30.22 in 10.0 mi NW 4.6 mph - N/A   Clear
2:50 PM 64.4 °F - 42.8 °F 45% 30.22 in 10.0 mi NW 3.5 mph - N/A   Clear
3:10 PM 64.4 °F - 42.8 °F 45% 30.22 in 9.0 mi NNW 3.5 mph - N/A   Clear
3:30 PM 64.4 °F - 41.0 °F 42% 30.21 in 10.0 mi NNW 4.6 mph - N/A   Clear
3:50 PM 64.4 °F - 42.8 °F 45% 30.20 in 10.0 mi WNW 4.6 mph - N/A   Clear
4:10 PM 64.4 °F - 42.8 °F 45% 30.21 in 10.0 mi WNW 4.6 mph - N/A   Clear
4:30 PM 62.6 °F - 39.2 °F 42% 30.20 in 10.0 mi Calm Calm - N/A   Clear
4:50 PM 64.4 °F - 33.8 °F 32% 30.21 in 10.0 mi Calm Calm - N/A   Clear
5:10 PM 64.4 °F - 33.8 °F 32% 30.20 in 10.0 mi North 5.8 mph - N/A   Clear
5:30 PM 62.6 °F - 33.8 °F 34% 30.21 in 10.0 mi Calm Calm - N/A   Clear
5:50 PM 62.6 °F - 32.0 °F 32% 30.21 in 10.0 mi NNW 4.6 mph - N/A   Clear
6:10 PM 62.6 °F - 33.8 °F 34% 30.21 in 10.0 mi NNW 3.5 mph - N/A   Clear
6:30 PM 62.6 °F - 33.8 °F 34% 30.20 in 10.0 mi North 3.5 mph - N/A   Clear
6:50 PM 60.8 °F - 35.6 °F 39% 30.20 in 10.0 mi North 5.8 mph - N/A   Clear
7:10 PM 60.8 °F - 35.6 °F 39% 30.20 in 10.0 mi NNW 6.9 mph - N/A   Clear
7:30 PM 60.8 °F - 35.6 °F 39% 30.20 in 10.0 mi NNW 3.5 mph - N/A   Clear
7:50 PM 60.8 °F - 35.6 °F 39% 30.20 in 10.0 mi NW 4.6 mph - N/A   Clear
8:10 PM 59.0 °F - 35.6 °F 42% 30.20 in 10.0 mi NW 4.6 mph - N/A   Clear
8:30 PM 59.0 °F - 35.6 °F 42% 30.20 in 10.0 mi NW 4.6 mph - N/A   Clear
8:50 PM 57.2 °F - 35.6 °F 44% 30.20 in 10.0 mi NW 3.5 mph - N/A   Clear
9:10 PM 53.6 °F - 37.4 °F 54% 30.20 in 10.0 mi Calm Calm - N/A   Clear
9:30 PM 53.6 °F - 35.6 °F 51% 30.20 in 10.0 mi WNW 4.6 mph - N/A   Clear
9:50 PM 57.2 °F - 35.6 °F 44% 30.20 in 10.0 mi Calm Calm - N/A   Clear
10:10 PM 57.2 °F - 35.6 °F 44% 30.20 in 10.0 mi NNW 3.5 mph - N/A   Clear
10:30 PM 57.2 °F - 35.6 °F 44% 30.20 in 10.0 mi Calm Calm - N/A   Clear
10:50 PM 57.2 °F - 35.6 °F 44% 30.19 in 10.0 mi NNW 4.6 mph - N/A   Clear
11:10 PM 57.2 °F - 37.4 °F 48% 30.19 in 10.0 mi North 3.5 mph - N/A   Clear
11:30 PM 55.4 °F - 37.4 °F 51% 30.19 in 10.0 mi Calm Calm - N/A   Clear
11:50 PM 51.8 °F - 37.4 °F 58% 30.19 in 10.0 mi Calm Calm - N/A   Clear